»·PEaware :: SWA250 KSFO-KPHX

SWA250 :: KSFO-KPHX

FLIGHT INFORMATION

Flight Status: Arrived
Operator:
Southwest Airlines
More flights by this operator :: More flights under this callsign
Pilot: Anonymous 13363 (13363)
Aircraft: BOEING 737-800
(B738)
More flights by this aircraft type
Origin: KSFO San Francisco Intl
United States
Destination: KPHX Phoenix Sky Harbor Intl
United States
More flights between these airports :: More routes between these airports
Route: + / SFO270003 LOSHN BOILE BLH HYDRR1
File this flight plan on PilotEdge
Remarks:
Altitude:
(Current/Filed)
37,000ft
Speed:
(Current/Filed)
460kts
Departed: 07-Oct-17 02:18 PM
Arrived: 07-Oct-17 03:52 PM
Distance/Time
Traveled:
565nm/1:34
Distance/Time
To Go:
Arrived

Flight Plot

Page will automatically refresh every two minutes.

Flight plan parsing failed; only flown route is shown


Map Options




Map Legend


Flown Route
Filed Route
Departure Airport
Arrival Airport
Navaid (VOR, NDB)
Fix

Horizontal Profiles

Position Reports

Time Latitude Longitude Heading Altitude Ground
Speed
07-Oct-17 13:59 37.612636 -122.384669 6 20ft 0kts
07-Oct-17 14:01 37.612636 -122.384669 6 20ft 0kts
07-Oct-17 14:01 37.612636 -122.384669 6 20ft 0kts
07-Oct-17 14:02 37.612636 -122.384669 6 20ft 0kts
07-Oct-17 14:03 37.612636 -122.384669 6 20ft 0kts
07-Oct-17 14:04 37.612636 -122.384669 6 20ft 0kts
07-Oct-17 14:05 37.612636 -122.384669 6 20ft 0kts
07-Oct-17 14:06 37.612636 -122.384669 6 20ft 0kts
07-Oct-17 14:07 37.612636 -122.384669 6 20ft 0kts
07-Oct-17 14:08 37.612636 -122.384669 6 20ft 0kts
07-Oct-17 14:09 37.612234 -122.384721 5 20ft 2kts
07-Oct-17 14:10 37.611639 -122.384769 2 20ft 2kts
07-Oct-17 14:11 37.611040 -122.384748 357 20ft 2kts
07-Oct-17 14:12 37.610466 -122.384869 35 20ft 2kts
07-Oct-17 14:13 37.610188 -122.385501 88 20ft 2kts
07-Oct-17 14:14 37.610275 -122.385939 118 20ft 0kts
07-Oct-17 14:15 37.610275 -122.385939 118 20ft 0kts
07-Oct-17 14:16 37.610275 -122.385939 118 20ft 0kts
07-Oct-17 14:17 37.610275 -122.385939 118 20ft 0kts
07-Oct-17 14:18 37.610275 -122.385939 118 20ft 0kts
07-Oct-17 14:19 37.609956 -122.385203 119 20ft 14kts
07-Oct-17 14:20 37.608466 -122.383861 125 20ft 4kts
07-Oct-17 14:21 37.608247 -122.382721 31 20ft 0kts
07-Oct-17 14:22 37.626836 -122.369425 22 789ft 131kts
07-Oct-17 14:23 37.664503 -122.362418 0 3180ft 140kts
07-Oct-17 14:24 37.692747 -122.382200 260 5609ft 154kts
07-Oct-17 14:25 37.651025 -122.406451 201 7739ft 202kts
07-Oct-17 14:26 37.585682 -122.422460 162 9325ft 301kts
07-Oct-17 14:27 37.535882 -122.332580 115 12163ft 351kts
07-Oct-17 14:28 37.478399 -122.231038 132 15652ft 370kts
07-Oct-17 14:29 37.408156 -122.132378 134 19307ft 391kts
07-Oct-17 14:30 37.333051 -122.028904 135 22556ft 413kts
07-Oct-17 14:31 37.253894 -121.920058 135 25411ft 435kts
07-Oct-17 14:32 37.171055 -121.806311 135 28239ft 447kts
07-Oct-17 14:33 37.087893 -121.692307 135 31167ft 444kts
07-Oct-17 14:34 37.005413 -121.579240 136 33620ft 440kts
07-Oct-17 14:35 36.923359 -121.466842 136 35689ft 438kts
07-Oct-17 14:36 36.849124 -121.365265 136 36916ft 445kts
07-Oct-17 14:37 36.762766 -121.246967 136 36939ft 478kts
07-Oct-17 14:38 36.671408 -121.121943 136 36914ft 493kts
07-Oct-17 14:39 36.579166 -120.995990 136 36913ft 493kts
07-Oct-17 14:40 36.487021 -120.870319 136 36914ft 493kts
07-Oct-17 14:41 36.394955 -120.744896 136 36940ft 493kts
07-Oct-17 14:42 36.303104 -120.619908 135 36944ft 493kts
07-Oct-17 14:43 36.210942 -120.494638 135 36946ft 493kts
07-Oct-17 14:44 36.118571 -120.369228 135 36948ft 493kts
07-Oct-17 14:45 36.027526 -120.245678 136 36938ft 493kts
07-Oct-17 14:46 35.935911 -120.121567 136 36939ft 492kts
07-Oct-17 14:47 35.851601 -120.006262 135 36939ft 493kts
07-Oct-17 14:48 35.760741 -119.881223 135 36941ft 493kts
07-Oct-17 14:49 35.669496 -119.756271 133 36941ft 495kts
07-Oct-17 14:50 35.638609 -119.713882 133 36944ft 495kts
07-Oct-17 14:51 35.547357 -119.588496 133 36919ft 494kts
07-Oct-17 14:52 35.456259 -119.463152 133 36918ft 494kts
07-Oct-17 14:53 35.369762 -119.343967 133 36918ft 494kts
07-Oct-17 14:54 35.280099 -119.220159 133 36912ft 493kts
07-Oct-17 14:55 35.189495 -119.094948 133 36913ft 493kts
07-Oct-17 14:56 35.098976 -118.969676 133 36927ft 493kts
07-Oct-17 14:57 35.008929 -118.844871 133 37043ft 493kts
07-Oct-17 14:58 34.918950 -118.719977 133 37054ft 493kts
07-Oct-17 14:59 34.834394 -118.602445 133 37050ft 493kts
07-Oct-17 15:00 34.744599 -118.477434 133 36989ft 492kts
07-Oct-17 15:01 34.655397 -118.353109 132 36973ft 493kts
07-Oct-17 15:02 34.577686 -118.244561 133 36965ft 492kts
07-Oct-17 15:03 34.497988 -118.133171 133 36965ft 492kts
07-Oct-17 15:04 34.425191 -118.017124 116 36965ft 496kts
07-Oct-17 15:05 34.385635 -117.884603 108 36923ft 496kts
07-Oct-17 15:06 34.346413 -117.737220 107 36916ft 497kts
07-Oct-17 15:07 34.306894 -117.587619 107 36918ft 497kts
07-Oct-17 15:08 34.269022 -117.443583 107 36970ft 497kts
07-Oct-17 15:09 34.233280 -117.306960 107 36964ft 497kts
07-Oct-17 15:10 34.195907 -117.163439 107 36976ft 497kts
07-Oct-17 15:11 34.156794 -117.012655 107 37075ft 497kts
07-Oct-17 15:12 34.116795 -116.857711 107 37175ft 497kts
07-Oct-17 15:13 34.078533 -116.708769 106 37187ft 497kts
07-Oct-17 15:14 34.040920 -116.561642 106 37179ft 498kts
07-Oct-17 15:15 34.002705 -116.411436 106 37084ft 497kts
07-Oct-17 15:16 33.966536 -116.268433 106 37000ft 496kts
07-Oct-17 15:17 33.926662 -116.110146 106 36968ft 497kts
07-Oct-17 15:18 33.887509 -115.953973 106 36965ft 497kts
07-Oct-17 15:19 33.847985 -115.795510 106 36967ft 497kts
07-Oct-17 15:20 33.808500 -115.636386 106 36969ft 497kts
07-Oct-17 15:21 33.769306 -115.477595 105 36864ft 496kts
07-Oct-17 15:22 33.730491 -115.319449 106 36749ft 496kts
07-Oct-17 15:23 33.691799 -115.160891 106 36768ft 496kts
07-Oct-17 15:24 33.654589 -115.008001 105 36292ft 455kts
07-Oct-17 15:25 33.620329 -114.866284 104 34218ft 432kts
07-Oct-17 15:26 33.589102 -114.727839 102 32229ft 439kts
07-Oct-17 15:27 33.560799 -114.586278 101 30126ft 437kts
07-Oct-17 15:28 33.532736 -114.443903 101 28098ft 441kts
07-Oct-17 15:29 33.504988 -114.302202 102 26040ft 442kts
07-Oct-17 15:30 33.477540 -114.161252 102 23987ft 426kts
07-Oct-17 15:31 33.450924 -114.025801 103 22839ft 416kts
07-Oct-17 15:32 33.423924 -113.890484 102 22833ft 419kts
07-Oct-17 15:33 33.397757 -113.754723 102 22833ft 419kts
07-Oct-17 15:34 33.371688 -113.619046 102 22834ft 419kts
07-Oct-17 15:35 33.345571 -113.483296 102 22835ft 419kts
07-Oct-17 15:36 33.319404 -113.347514 103 22835ft 419kts
07-Oct-17 15:37 33.294906 -113.212420 100 21347ft 409kts
07-Oct-17 15:38 33.277932 -113.080843 93 19346ft 394kts
07-Oct-17 15:39 33.277132 -112.950305 88 18385ft 393kts
07-Oct-17 15:40 33.282280 -112.821568 85 17045ft 383kts
07-Oct-17 15:41 33.291903 -112.696595 82 15558ft 373kts
07-Oct-17 15:42 33.302918 -112.575953 82 14076ft 363kts
07-Oct-17 15:43 33.313957 -112.457882 82 12585ft 352kts
07-Oct-17 15:44 33.324571 -112.345399 83 11119ft 344kts
07-Oct-17 15:45 33.334514 -112.235719 83 9650ft 336kts
07-Oct-17 15:46 33.344501 -112.125858 83 8553ft 323kts
07-Oct-17 15:47 33.346868 -112.016877 90 8335ft 326kts
07-Oct-17 15:48 33.343036 -111.910485 103 7182ft 317kts
07-Oct-17 15:49 33.341215 -111.822879 89 5959ft 283kts
07-Oct-17 15:50 33.367000 -111.749979 2 5022ft 243kts
07-Oct-17 15:51 33.409518 -111.790525 299 4712ft 187kts
07-Oct-17 15:52 33.428011 -111.845374 270 3981ft 178kts
07-Oct-17 15:53 33.428899 -111.902920 270 2807ft 161kts
07-Oct-17 15:54 33.428658 -111.953482 269 1899ft 144kts
07-Oct-17 15:55 33.428876 -112.000155 268 1159ft 136kts
07-Oct-17 15:56 33.429523 -112.016579 6 1117ft 4kts
07-Oct-17 15:57 33.431920 -112.015617 8 1116ft 0kts
07-Oct-17 15:58 33.431966 -112.015600 19 1116ft 1kts
07-Oct-17 15:59 33.432799 -112.014636 64 1117ft 11kts
07-Oct-17 16:00 33.432890 -112.011870 90 1117ft 9kts
07-Oct-17 16:01 33.432883 -112.008658 89 1117ft 7kts
07-Oct-17 16:02 33.432886 -112.006351 88 1117ft 7kts
07-Oct-17 16:03 33.432836 -112.004190 92 1117ft 8kts
07-Oct-17 16:05 33.432838 -112.001608 90 1117ft 0kts
07-Oct-17 16:05 33.432827 -112.001447 120 1117ft 0kts
07-Oct-17 16:07 33.432838 -112.000897 88 1117ft 6kts
07-Oct-17 16:07 33.433084 -111.998342 35 1117ft 7kts
07-Oct-17 16:08 33.433475 -111.998515 319 1117ft 0kts
07-Oct-17 16:10 33.433642 -111.998677 322 1117ft 0kts
07-Oct-17 16:10 33.433694 -111.998724 323 1116ft 0kts

Navigation Log

Ident Type
Flight plan parsing failed, navigation log unavailable